Latest Observation

42 Stations

15 Minute Data | America/Los_Angeles
as of 9/2/26 4:21 PM PDT
Station Date Time Temp (°F) RH (%) Dew Pt (°F) Wind Spd (mph) Wind Dir (°) Wind Gust (mph) Latest Rain (In) Daily Rain (In) Daily Min Temp (°F) Daily Max Temp (°F) Daily Max Wind (mph)
Elk Mt. Farm 8/13/26 1500 85.6   7.4 - - - - - - - 51.4   1.1 85.6   7.4 -
Upper Lake 9/2/26 1615 70.7   3.7 47   9 49.7   1.5 3.9 S | 181 11.5   0.7 0.00 0.01 49.9   5.9 73.2   3.7 12.6   6.3
Scotts Valley 9/2/26 1615 70.9   2.1 48   2 50.1   0.7 4.4 SW | 228 11.8   3.9 0.00 0.02 52.1   5.0 72.7   1.5 14.1   0.2
Scotts Valley-South (Bella Vista) 9/2/26 1615 69.1   1.8 45   3 46.9   0.1 5.1 SW | 217 10.9   1.9 0.00 0.05 52.8   3.5 71.5   0.1 13.8   0.5
Kelseyville 9/2/26 1615 69.9   1.3 51   0 51.0   1.4 8.0 SSW | 194 15.8   3.9 0.00 0.02 54.0   6.2 71.8   0.0 15.8   2.8
Kelseyville Remote 9/2/26 1615 71.5   2.6 41   2 46.3   1.2 - - - 0.00 0.01 54.5   6.3 72.9   0.3 -
Kelseyville (Clark Drive) 9/2/26 1615 73.5   2.5 - - - - - 0.00 0.00 53.4   8.2 75.4   2.0 -
Kelsey Bench (Oaklea) 9/2/26 1615 68.9   1.8 48   0 48.3   1.8 7.1 SW | 220 13.6   1.6 0.00 0.02 52.7   3.6 72.0   0.6 16.1   0.5
Smith Lane (Kelseyville-South) 9/2/26 1615 72.2   4.0 46   2 50.6   2.7 5.5 SSW | 197 14.9   1.7 0.00 0.02 53.7   9.5 73.9   1.7 15.5   0.0
Bell Hill-West 9/2/26 1615 71.0   2.6 56   1 54.3   2.8 7.5 S | 188 13.5   0.3 0.00 0.03 54.3   6.3 72.2   0.8 16.2   2.4
High Valley Ridgeline (Brassfield) 9/2/26 1615 65.6   0.1 52   3 47.4   1.6 8.5 WSW | 240 14.2   4.3 0.00 0.02 51.4   0.5 70.3   1.2 17.3   6.6
Wight Way (Adobe Creek) 9/2/26 1600 76.6   4.0 39   2 50.1   2.6 3.0 WSW | 248 9.6   6.1 0.00 0.05 53.7   7.6 78.6   0.6 12.9   2.8
Ridgeline Top (Brassfield) 9/2/26 1615 66.2   1.2 - - - - - - - 51.2   0.4 72.7   1.0 -
Ridgeline Low (Brassfield) 9/2/26 1615 66.6   0.2 - - - - - - - 52.2   1.2 70.3   0.7 -
Long Valley (Shannon) 6/29/26 1400 84.9   4.6 25   1 44.9   3.2 2.9 ENE | 75 10.2   0.4 0.00 0.00 46.4   0.4 86.9   6.5 13.7   1.8
High Valley Winery 9/2/26 1615 67.5   0.6 47   2 46.7   1.4 6.5 WSW | 242 11.4   4.6 0.00 0.00 53.0   0.3 72.0   0.8 17.7   1.1
Round Mtn Rd. 9/2/26 1545 70.5   2.5 - - - - - - - 51.7   3.0 70.6   0.5 -
Circle O 9/2/26 1615 69.5   2.5 - - - - - - - 50.3   0.3 73.1   1.4 -
Robertsbridge Vineyards 9/2/26 1615 70.5   2.0 46   0 48.7   1.8 - - - - - 50.5   5.7 72.9   0.7 -
Urgency Vineyard 9/2/26 1615 71.2   1.9 41   2 46.6   0.7 5.2 SSW | 204 11.6   0.2 0.00 0.01 52.9   1.8 72.6   0.9 13.0   1.0
Red Hills (Beckstoffer) 9/2/26 1615 71.4   4.5 42   7 47.1   0.1 - - - 0.00 0.01 53.1   1.4 71.8   1.0 -
Winters (Shannon) 9/2/26 1615 69.4   3.5 43   3 46.2   1.4 4.7 WSW | 253 11.2   0.4 0.00 0.01 50.5   0.6 71.2   1.4 14.0   0.1
Secret Pond (Shannon) 9/2/26 1615 67.4   3.0 44   5 44.7   0.1 5.7 WSW | 250 13.8   1.1 0.00 0.00 50.4   2.0 69.5   2.3 13.8   5.9
Rolling Knolls (Shannon) 9/2/26 1615 70.0   1.5 40   1 44.7   0.5 4.2 SW | 230 11.7   1.8 0.00 0.00 50.0   3.7 73.8   1.9 13.2   0.5
Lower Lake 9/2/26 1615 70.3   1.9 44   1 47.6   1.4 5.7 W | 270 11.5   2.1 0.00 0.00 52.3   0.9 73.6   2.2 14.5   1.8
Adamson Ranch 9/2/26 1615 73.9   4.3 41   2 48.5   2.3 7.0 SSW | 197 14.9   3.1 0.00 0.01 49.7   5.6 75.0   1.6 17.8   0.4
Middletown (Diamond D) 9/2/26 1615 69.5   0.6 56   5 53.2   3.1 4.0 N | 355 9.9   9.8 0.00 0.07 55.3   13.7 71.7   0.9 16.3   4.6
Middletown-West (Domaine Helena) 9/2/26 1615 71.8   4.7 51   1 52.9   4.0 8.9 SW | 227 15.3   5.1 0.00 0.11 53.7   12.6 71.8   1.5 15.7   4.8
Middletown-South 9/2/26 1615 69.8   1.4 52   5 51.6   3.7 4.2 SSW | 213 13.2   3.8 0.00 0.22 54.4   9.3 71.0   1.0 13.6   3.4
Jim Davis (Langtry) 9/2/26 1615 69.7   1.0 53   6 51.9   2.3 6.5 SW | 232 12.6   5.3 0.00 0.00 53.0   5.4 72.0   1.6 16.7   1.4
Napa Valley Basin 9/2/26 1615 74.2   0.7 43   3 50.6   2.8 5.6 WNW | 282 14.4   1.2 0.00 0.00 49.7   7.3 75.6   0.7 18.6   0.7
Lower Bohn 9/2/26 1615 71.5   0.3 48   4 50.6   2.6 5.4 SE | 131 11.7   5.8 0.00 0.00 48.8   10.3 74.0   1.3 20.8   0.1
Upper Bohn-North 9/2/26 1615 74.6   4.7 39   3 48.1   2.4 4.7 SSW | 206 9.6   1.2 0.00 0.00 51.4   5.1 75.7   0.1 12.9   1.5
Snell Peak Blk#9 9/2/26 1615 71.1   0.5 45   4 48.8   2.7 3.6 S | 183 9.2   2.6 0.00 0.00 55.2   5.7 72.6   1.1 14.8   1.8
Coyote Lake West 9/2/26 1615 71.3   1.4 49   5 51.3   1.9 5.8 SW | 230 10.8   6.4 0.00 0.00 52.6   6.1 74.0   0.0 16.4   0.8
Coyote Lake Northeast 9/2/26 1615 72.4   0.9 48   4 51.6   1.3 - - - - - 53.9   5.4 74.2   1.3 -
Coyote Lake East 9/2/26 1615 73.6   0.1 46   4 51.7   2.7 - - - - - 50.7   6.1 74.5   0.7 -
Morgan Valley 9/2/26 1615 65.4   1.3 55   0 49.0   1.3 10.2 SSW | 197 18.9   2.4 0.00 0.00 51.6   0.9 66.9   1.5 18.9   0.9
Mine Pit North 9/2/26 1615 69.6   1.7 46   0 47.9   1.6 10.4 S | 188 21.2   0.4 - - 52.2   3.7 71.0   2.0 26.8   1.1
Mine Pit South 9/2/26 1615 70.5   2.2 41   0 45.8   1.9 7.0 SW | 214 15.6   3.0 0.00 0.00 51.3   1.7 71.2   1.1 22.4   2.6
Cow Mountain 9/2/26 1615 58.2   4.9 - - 12.9 WSW | 251 24.8   2.0 0.00 0.06 46.8   0.6 60.5   2.3 24.8   7.4
Ukiah-SE (Ruddick) 9/2/26 1615 73.2   3.5 41   6 48.2   0.7 7.8 SSW | 205 14.6   2.3 0.00 0.07 55.1   3.8 75.2   4.1 14.6   1.4
Max     76.6 56 54.3 12.9 - 24.8 0.00 0.22 55.3 78.6 26.8
Avg     70.3 46 49.1 6.3 - 13.5 0.00 - - - -
Min     58.2 39 44.7 3.0 - 9.2 0.00 0.00 46.8 60.5 12.6